KDTN/DTN METAR and TAF weather

Enter ICAO airport designator
Station Type Date Time Source
KDTN METAR 2018/12/12 15:53 UTC NOAA

KDTN 121553Z 15007KT 10SM FEW046 BKN060 12/06 A3011 RMK AO2 SLP196 T01170061


Station Type Date Time Source
KDTN Decoded METAR 2018/12/12 15:53 UTC NOAA

SHREVEPORT DOWNTOWN AIRPORT, LA, United States (KDTN) 32-32N 093-45W 53M
Dec 12, 2018 - 10:53 AM EST / 2018.12.12 1553 UTC
Wind: from the SSE (150 degrees) at 8 MPH (7 KT):0
Visibility: 10 mile(s):0
Sky conditions: mostly cloudy
Temperature: 53.1 F (11.7 C)
Dew Point: 43.0 F (6.1 C)
Relative Humidity: 68%
Pressure (altimeter): 30.11 in. Hg (1019 hPa)
ob: KDTN 121553Z 15007KT 10SM FEW046 BKN060 12/06 A3011 RMK AO2 SLP196 T01170061
cycle: 16

Station Type Date Time Source
KDTN TAF UTC NOAA

Error!


Example: see airport list